EIMY weather

Moyne Aerodrome
Thurles, County Tipperary, Ireland

Public forecast

Using degrees Celsius for public forecast. Weather courtesy of forecast.io.

METAR (pilot weather report)

Report is more than 2 hours old.

Closest report is Waterford Airport, 38.4 nm (71.0 km) SE. Retrieved 2019/06/16 20:30 UTC (4 hours ago):

EIWF 162030Z 25015KT 200V290 CAVOK ///// Q1009

TAF (pilot weather forecast)

Forecast is more than 12 hours old.

Closest forecast is Shannon Airport, 44.4 nm (82.2 km) W. Retrieved 2019/06/16 00:09 UTC (1 day ago):

TAF EINN 162300Z 1700/1724 18010KT 9999 FEW012 BKN030 BECMG 1704/1707 21013KT BECMG 1712/1714 25013KT BECMG 1721/1724 21005KT